createdAt,value
2018-11-20T00:00:48.201Z,29.33
2018-11-20T00:06:00.871Z,28.47
2018-11-20T00:11:24.339Z,30.03
2018-11-20T00:16:34.196Z,32.93
2018-11-20T00:21:57.451Z,27.00
2018-11-20T00:27:39.698Z,30.83
2018-11-20T00:33:02.940Z,26.97
2018-11-20T00:38:26.210Z,28.53
2018-11-20T00:43:49.451Z,28.37
2018-11-20T00:49:12.653Z,26.80
2018-11-20T00:54:35.922Z,27.40
2018-11-20T01:00:18.184Z,27.03
2018-11-20T01:05:31.600Z,29.80
2018-11-20T01:10:54.735Z,27.20
2018-11-20T01:16:17.998Z,27.53
2018-11-20T01:21:41.217Z,23.60
2018-11-20T01:27:04.441Z,27.03
2018-11-20T01:32:27.671Z,28.00
2018-11-20T01:37:50.915Z,26.40
2018-11-20T01:43:14.156Z,26.30
2018-11-20T01:48:37.364Z,27.77
2018-11-20T01:54:00.604Z,26.33
2018-11-20T01:59:23.822Z,27.50
2018-11-20T02:04:47.087Z,25.93
2018-11-20T02:10:10.344Z,27.50
2018-11-20T02:15:33.574Z,27.37
2018-11-20T02:20:57.257Z,26.07
2018-11-20T02:26:20.461Z,26.77
2018-11-20T02:31:43.674Z,27.10
2018-11-20T02:37:06.947Z,26.83
2018-11-20T02:42:30.209Z,28.10
2018-11-20T02:47:53.544Z,25.13
2018-11-20T02:53:16.783Z,29.13
2018-11-20T02:58:40.049Z,27.83
2018-11-20T03:04:03.276Z,24.97
2018-11-20T03:09:27.515Z,26.20
2018-11-20T03:14:50.757Z,24.87
2018-11-20T03:20:13.984Z,26.27
2018-11-20T03:26:00.048Z,25.97
2018-11-20T03:31:23.590Z,27.73
2018-11-20T03:36:46.817Z,27.07
2018-11-20T03:42:10.132Z,28.23
2018-11-20T03:47:33.288Z,25.30
2018-11-20T03:52:56.531Z,24.77
2018-11-20T03:58:19.751Z,23.63
2018-11-20T04:03:42.996Z,24.67
2018-11-20T04:09:06.229Z,25.40
2018-11-20T04:14:29.479Z,27.73
2018-11-20T04:19:52.694Z,24.07
2018-11-20T04:25:15.963Z,25.47
2018-11-20T04:31:17.144Z,25.40
2018-11-20T04:36:40.386Z,25.37
2018-11-20T04:42:03.669Z,24.63
2018-11-20T04:47:19.174Z,23.93
2018-11-20T04:52:42.370Z,27.47
2018-11-20T04:58:05.612Z,27.32
2018-11-20T05:03:29.095Z,26.87
2018-11-20T05:08:52.408Z,26.07
2018-11-20T05:14:34.617Z,29.00
2018-11-20T05:20:09.246Z,29.13
2018-11-20T05:25:32.497Z,25.50
2018-11-20T05:30:55.741Z,26.30
2018-11-20T05:36:12.436Z,27.47
2018-11-20T05:41:54.631Z,26.20
2018-11-20T05:47:17.848Z,27.73
2018-11-20T05:52:41.069Z,26.87
2018-11-20T05:58:23.311Z,24.73
2018-11-20T06:03:46.584Z,25.63
2018-11-20T06:09:09.818Z,24.80
2018-11-20T06:14:33.046Z,25.17
2018-11-20T06:19:56.307Z,24.57
2018-11-20T06:25:07.912Z,25.73
2018-11-20T06:30:31.091Z,26.03
2018-11-20T06:35:54.334Z,23.37
2018-11-20T06:41:17.677Z,24.33
2018-11-20T06:46:40.813Z,26.03
2018-11-20T06:51:55.924Z,24.93
2018-11-20T06:57:25.536Z,23.20
2018-11-20T07:02:48.711Z,24.27
2018-11-20T07:08:01.492Z,23.50
2018-11-20T07:13:42.752Z,26.77
2018-11-20T07:19:06.000Z,24.67
2018-11-20T07:24:48.315Z,25.47
2018-11-20T07:30:11.654Z,28.57
2018-11-20T07:35:34.829Z,30.05
2018-11-20T07:41:17.065Z,30.57
2018-11-20T07:46:40.294Z,26.53
2018-11-20T07:52:03.567Z,27.00
2018-11-20T07:57:45.878Z,30.90
2018-11-20T08:03:09.130Z,30.07
2018-11-20T08:08:20.654Z,29.27
2018-11-20T08:13:43.926Z,29.20
2018-11-20T08:19:00.541Z,30.93
2018-11-20T08:24:23.923Z,31.83
2018-11-20T08:29:47.142Z,29.60
2018-11-20T08:35:10.463Z,27.67
2018-11-20T08:40:33.676Z,29.10
2018-11-20T08:45:56.886Z,29.10
2018-11-20T08:51:20.120Z,30.87
2018-11-20T08:56:43.337Z,30.13
2018-11-20T09:02:06.621Z,27.87
2018-11-20T09:07:24.957Z,26.42
2018-11-20T09:12:38.183Z,26.90
2018-11-20T09:18:01.508Z,28.07
2018-11-20T09:23:43.609Z,28.47
2018-11-20T09:29:06.864Z,29.67
2018-11-20T09:34:30.125Z,29.10
2018-11-20T09:39:59.432Z,26.90
2018-11-20T09:45:43.852Z,27.07
2018-11-20T09:51:07.089Z,29.30
2018-11-20T09:56:30.323Z,30.47
2018-11-20T10:01:53.775Z,32.97
2018-11-20T10:07:16.972Z,29.87
2018-11-20T10:12:40.187Z,31.07
2018-11-20T10:18:03.428Z,31.20
2018-11-20T10:23:26.681Z,31.30
2018-11-20T10:28:49.891Z,28.73
2018-11-20T10:34:13.246Z,30.27
2018-11-20T10:39:36.375Z,30.93
2018-11-20T10:44:59.656Z,28.83
2018-11-20T10:50:22.947Z,30.80
2018-11-20T10:55:33.374Z,30.90
2018-11-20T11:00:56.610Z,32.50
2018-11-20T11:06:19.919Z,29.20
2018-11-20T11:17:01.617Z,29.63
2018-11-20T11:22:24.932Z,26.40
2018-11-20T11:27:48.325Z,27.57
2018-11-20T11:33:30.610Z,27.87
2018-11-20T11:38:53.890Z,27.83
2018-11-20T11:44:17.182Z,27.50
2018-11-20T11:49:40.446Z,27.10
2018-11-20T11:55:03.722Z,28.03
2018-11-20T12:00:23.276Z,25.77
2018-11-20T12:05:46.518Z,25.30
2018-11-20T12:11:29.720Z,24.83
2018-11-20T12:16:53.012Z,25.27
2018-11-20T12:22:16.241Z,26.27
2018-11-20T12:27:34.524Z,26.73
2018-11-20T12:32:57.790Z,25.10
2018-11-20T12:38:21.032Z,24.47
2018-11-20T12:43:54.817Z,26.60
2018-11-20T12:49:17.076Z,25.73
2018-11-20T12:54:39.829Z,28.83
2018-11-20T13:00:03.090Z,24.33
2018-11-20T13:05:26.520Z,27.17
2018-11-20T13:10:49.755Z,28.03
2018-11-20T13:16:12.963Z,28.83
2018-11-20T13:21:36.188Z,27.10
2018-11-20T13:26:59.464Z,28.47
2018-11-20T13:32:22.808Z,29.23
2018-11-20T13:37:35.611Z,29.53
2018-11-20T13:42:59.914Z,28.40
2018-11-20T13:48:15.181Z,31.57
2018-11-20T13:53:38.365Z,28.00
2018-11-20T13:59:01.591Z,29.67
2018-11-20T14:04:24.820Z,26.83
2018-11-20T14:09:48.147Z,28.20
2018-11-20T14:15:11.373Z,27.77
2018-11-20T14:20:34.627Z,27.50
2018-11-20T14:25:57.889Z,26.70
2018-11-20T14:31:21.117Z,27.37
2018-11-20T14:36:36.571Z,29.53
2018-11-20T14:41:59.796Z,27.93
2018-11-20T14:47:23.056Z,26.30
2018-11-20T14:52:46.359Z,27.13
2018-11-20T14:58:09.576Z,28.43
2018-11-20T15:03:51.860Z,30.60
2018-11-20T15:09:15.124Z,28.03
2018-11-20T15:14:38.355Z,29.10
2018-11-20T15:20:20.560Z,29.20
2018-11-20T15:25:43.789Z,30.10
2018-11-20T15:31:07.071Z,30.73
2018-11-20T15:36:49.297Z,29.67
2018-11-20T15:42:12.564Z,29.17
2018-11-20T15:47:35.862Z,31.67
2018-11-20T15:52:56.459Z,29.00
2018-11-20T15:58:19.664Z,27.47
2018-11-20T16:03:42.947Z,28.38
2018-11-20T16:09:25.135Z,32.73
2018-11-20T16:14:40.859Z,31.57
2018-11-20T16:20:04.171Z,28.27
2018-11-20T16:25:46.306Z,28.30
2018-11-20T16:31:01.578Z,31.13
2018-11-20T16:36:37.778Z,28.27
2018-11-20T16:42:00.965Z,30.72
2018-11-20T16:47:24.205Z,32.60
2018-11-20T16:52:47.462Z,29.40
2018-11-20T16:58:10.737Z,33.97
2018-11-20T17:03:34.017Z,30.00
2018-11-20T17:08:57.303Z,32.87
2018-11-20T17:14:20.524Z,32.88
2018-11-20T17:19:43.794Z,30.10
2018-11-20T17:25:07.065Z,30.70
2018-11-20T17:30:31.314Z,32.73
2018-11-20T17:35:54.617Z,29.43
2018-11-20T17:41:17.949Z,30.20
2018-11-20T17:46:33.100Z,31.52
2018-11-20T17:51:56.351Z,30.10
2018-11-20T17:57:19.629Z,33.23
2018-11-20T18:02:42.885Z,31.57
2018-11-20T18:08:06.113Z,30.20
2018-11-20T18:13:48.379Z,34.03
2018-11-20T18:19:11.660Z,30.97
2018-11-20T18:24:34.929Z,33.97
2018-11-20T18:29:58.157Z,32.87
2018-11-20T18:35:21.495Z,31.57
2018-11-20T18:40:44.797Z,36.37
2018-11-20T18:46:08.419Z,33.70
2018-11-20T18:57:06.196Z,31.37
2018-11-20T19:02:23.844Z,35.60
2018-11-20T19:07:47.105Z,34.50
2018-11-20T19:13:10.367Z,50.47
2018-11-20T19:18:33.589Z,34.47
2018-11-20T19:23:56.868Z,32.75
2018-11-20T19:29:20.076Z,34.37
2018-11-20T19:35:02.257Z,33.47
2018-11-20T19:40:27.168Z,32.20
2018-11-20T19:45:50.544Z,33.73
2018-11-20T19:51:13.907Z,29.53
2018-11-20T19:56:37.274Z,31.80
2018-11-20T20:02:00.678Z,30.93
2018-11-20T20:07:24.117Z,30.43
2018-11-20T20:12:47.508Z,32.33
2018-11-20T20:18:10.903Z,30.47
2018-11-20T20:23:41.129Z,34.92
2018-11-20T20:29:04.416Z,28.98
2018-11-20T20:34:17.349Z,27.80
2018-11-20T20:39:40.595Z,31.60
2018-11-20T20:45:03.874Z,30.33
2018-11-20T20:50:27.284Z,31.73
2018-11-20T20:55:50.617Z,32.90
2018-11-20T21:01:14.070Z,32.73
2018-11-20T21:06:37.346Z,31.50
2018-11-20T21:12:19.634Z,33.27
2018-11-20T21:18:01.892Z,34.73
2018-11-20T21:23:25.642Z,32.73
2018-11-20T21:28:48.867Z,32.23
2018-11-20T21:34:12.171Z,32.17
2018-11-20T21:39:35.451Z,31.87
2018-11-20T21:44:58.714Z,31.50
2018-11-20T21:50:21.938Z,33.17
2018-11-20T21:55:36.569Z,33.00
2018-11-20T22:01:20.321Z,28.77
2018-11-20T22:06:43.744Z,32.20
2018-11-20T22:12:26.169Z,30.00
2018-11-20T22:17:49.401Z,30.80
2018-11-20T22:23:12.624Z,29.00
2018-11-20T22:28:35.942Z,29.57
2018-11-20T22:33:59.257Z,32.97
2018-11-20T22:39:41.627Z,33.00
2018-11-20T22:45:04.952Z,30.40
2018-11-20T22:50:28.193Z,29.83
2018-11-20T22:55:51.435Z,31.23
2018-11-20T23:01:14.655Z,34.53
2018-11-20T23:06:36.507Z,29.70
2018-11-20T23:11:40.930Z,30.37
2018-11-20T23:16:45.531Z,33.13
2018-11-20T23:21:50.108Z,31.23
2018-11-20T23:27:16.550Z,31.13
2018-11-20T23:32:19.044Z,32.47
2018-11-20T23:37:42.660Z,34.07
2018-11-20T23:42:47.307Z,33.23
2018-11-20T23:47:52.068Z,30.40
2018-11-20T23:52:57.085Z,34.10
2018-11-20T23:58:01.559Z,32.93
